Rimini, South Carolina
Current Conditions -  °F | °C
As of 3:58 PM on Friday 24 Oct 2014 (Local Time) from KSSC Reporting Station
Few Clouds Few Clouds  
Wind Chill: 23°   Ceiling: Unl
Heat Index: 23°   Visibility: 10mi
Dew Point:   Wind: 6mph
Humidity: 38%   Direction: NA
Pressure: 29.97"   Gusts: NA
Location:  33.7445°N, 80.5249°W
Report Text: KSSC 241958Z AUTO VRB05KT 10SM FEW200 23/08 A2997 RMK AO2 SLP150 T02250075 $
Loading
Personal Weather Stations






























Interactive Weather Map
Tropical Storm Tracking
New forecast layout! Learn more

10-Day Weather Forecast

Advertisements
Track Severe Weather on mobile